sensor_id;sensor_type;location;lat;lon;timestamp;P1;durP1;ratioP1;P2;durP2;ratioP2
9761;SDS011;4920;49.594;11.022;2023-06-22T00:00:42;11.27;;;8.68;;
9761;SDS011;4920;49.594;11.022;2023-06-22T00:03:12;12.57;;;8.95;;
9761;SDS011;4920;49.594;11.022;2023-06-22T00:05:42;11.70;;;9.50;;
9761;SDS011;4920;49.594;11.022;2023-06-22T00:08:10;11.25;;;9.00;;
9761;SDS011;4920;49.594;11.022;2023-06-22T00:10:39;13.02;;;9.30;;
9761;SDS011;4920;49.594;11.022;2023-06-22T00:13:08;10.13;;;9.13;;
9761;SDS011;4920;49.594;11.022;2023-06-22T00:15:38;12.15;;;9.50;;
9761;SDS011;4920;49.594;11.022;2023-06-22T00:18:09;10.30;;;9.20;;
9761;SDS011;4920;49.594;11.022;2023-06-22T00:20:41;15.45;;;9.43;;
9761;SDS011;4920;49.594;11.022;2023-06-22T00:23:12;10.60;;;9.60;;
9761;SDS011;4920;49.594;11.022;2023-06-22T00:25:42;11.75;;;9.18;;
9761;SDS011;4920;49.594;11.022;2023-06-22T00:28:11;10.60;;;9.50;;
9761;SDS011;4920;49.594;11.022;2023-06-22T00:30:39;12.52;;;9.20;;
9761;SDS011;4920;49.594;11.022;2023-06-22T00:33:09;10.20;;;9.18;;
9761;SDS011;4920;49.594;11.022;2023-06-22T00:35:39;11.90;;;8.88;;
9761;SDS011;4920;49.594;11.022;2023-06-22T00:38:10;11.88;;;9.27;;
9761;SDS011;4920;49.594;11.022;2023-06-22T00:40:41;9.98;;;8.82;;
9761;SDS011;4920;49.594;11.022;2023-06-22T00:43:10;11.32;;;9.30;;
9761;SDS011;4920;49.594;11.022;2023-06-22T00:45:38;10.32;;;9.18;;
9761;SDS011;4920;49.594;11.022;2023-06-22T00:48:09;12.73;;;10.13;;
9761;SDS011;4920;49.594;11.022;2023-06-22T00:50:38;10.73;;;9.43;;
9761;SDS011;4920;49.594;11.022;2023-06-22T00:53:09;10.32;;;9.23;;
9761;SDS011;4920;49.594;11.022;2023-06-22T00:55:38;13.88;;;10.52;;
9761;SDS011;4920;49.594;11.022;2023-06-22T00:58:10;10.90;;;9.80;;
9761;SDS011;4920;49.594;11.022;2023-06-22T01:00:40;11.95;;;9.77;;
9761;SDS011;4920;49.594;11.022;2023-06-22T01:03:09;13.73;;;10.13;;
9761;SDS011;4920;49.594;11.022;2023-06-22T01:05:38;13.60;;;9.70;;
9761;SDS011;4920;49.594;11.022;2023-06-22T01:08:19;10.60;;;9.50;;
9761;SDS011;4920;49.594;11.022;2023-06-22T01:10:55;11.27;;;9.90;;
9761;SDS011;4920;49.594;11.022;2023-06-22T01:13:32;12.65;;;9.63;;
9761;SDS011;4920;49.594;11.022;2023-06-22T01:16:07;11.18;;;9.45;;
9761;SDS011;4920;49.594;11.022;2023-06-22T01:18:40;12.13;;;9.63;;
9761;SDS011;4920;49.594;11.022;2023-06-22T01:21:12;12.65;;;10.38;;
9761;SDS011;4920;49.594;11.022;2023-06-22T01:23:54;11.40;;;10.20;;
9761;SDS011;4920;49.594;11.022;2023-06-22T01:26:36;11.02;;;9.57;;
9761;SDS011;4920;49.594;11.022;2023-06-22T01:29:08;11.07;;;9.70;;
9761;SDS011;4920;49.594;11.022;2023-06-22T01:31:40;12.30;;;10.10;;
9761;SDS011;4920;49.594;11.022;2023-06-22T01:34:11;11.60;;;10.13;;
9761;SDS011;4920;49.594;11.022;2023-06-22T01:36:41;10.82;;;9.73;;
9761;SDS011;4920;49.594;11.022;2023-06-22T01:39:10;11.18;;;10.02;;
9761;SDS011;4920;49.594;11.022;2023-06-22T01:41:40;11.80;;;9.85;;
9761;SDS011;4920;49.594;11.022;2023-06-22T01:44:12;11.15;;;9.98;;
9761;SDS011;4920;49.594;11.022;2023-06-22T01:46:41;10.85;;;9.68;;
9761;SDS011;4920;49.594;11.022;2023-06-22T01:49:10;11.68;;;9.93;;
9761;SDS011;4920;49.594;11.022;2023-06-22T01:51:39;10.45;;;9.35;;
9761;SDS011;4920;49.594;11.022;2023-06-22T01:54:08;12.38;;;9.75;;
9761;SDS011;4920;49.594;11.022;2023-06-22T01:56:38;11.18;;;9.98;;
9761;SDS011;4920;49.594;11.022;2023-06-22T01:59:09;11.52;;;10.15;;
9761;SDS011;4920;49.594;11.022;2023-06-22T02:01:44;14.20;;;10.02;;
9761;SDS011;4920;49.594;11.022;2023-06-22T02:04:19;10.85;;;9.68;;
9761;SDS011;4920;49.594;11.022;2023-06-22T02:06:51;11.90;;;10.10;;
9761;SDS011;4920;49.594;11.022;2023-06-22T02:09:24;10.98;;;9.63;;
9761;SDS011;4920;49.594;11.022;2023-06-22T02:11:59;11.00;;;9.90;;
9761;SDS011;4920;49.594;11.022;2023-06-22T02:14:31;15.40;;;9.80;;
9761;SDS011;4920;49.594;11.022;2023-06-22T02:17:02;10.75;;;9.65;;
9761;SDS011;4920;49.594;11.022;2023-06-22T02:19:35;11.80;;;10.23;;
9761;SDS011;4920;49.594;11.022;2023-06-22T02:22:04;11.60;;;10.40;;
9761;SDS011;4920;49.594;11.022;2023-06-22T02:24:33;12.68;;;10.68;;
9761;SDS011;4920;49.594;11.022;2023-06-22T02:27:02;11.52;;;10.15;;
9761;SDS011;4920;49.594;11.022;2023-06-22T02:29:34;12.23;;;10.20;;
9761;SDS011;4920;49.594;11.022;2023-06-22T02:32:03;11.45;;;10.18;;
9761;SDS011;4920;49.594;11.022;2023-06-22T02:34:32;12.20;;;10.52;;
9761;SDS011;4920;49.594;11.022;2023-06-22T02:37:00;11.85;;;10.23;;
9761;SDS011;4920;49.594;11.022;2023-06-22T02:39:29;12.13;;;9.68;;
9761;SDS011;4920;49.594;11.022;2023-06-22T02:41:58;12.27;;;10.20;;
9761;SDS011;4920;49.594;11.022;2023-06-22T02:44:27;11.75;;;10.10;;
9761;SDS011;4920;49.594;11.022;2023-06-22T02:46:57;10.60;;;9.60;;
9761;SDS011;4920;49.594;11.022;2023-06-22T02:49:26;12.57;;;11.27;;
9761;SDS011;4920;49.594;11.022;2023-06-22T02:51:54;13.35;;;11.93;;
9761;SDS011;4920;49.594;11.022;2023-06-22T02:54:23;16.35;;;12.30;;
9761;SDS011;4920;49.594;11.022;2023-06-22T02:56:53;13.27;;;11.88;;
9761;SDS011;4920;49.594;11.022;2023-06-22T02:59:22;12.70;;;11.50;;
9761;SDS011;4920;49.594;11.022;2023-06-22T03:02:00;14.63;;;11.68;;
9761;SDS011;4920;49.594;11.022;2023-06-22T03:04:31;13.63;;;11.52;;
9761;SDS011;4920;49.594;11.022;2023-06-22T03:07:00;15.05;;;11.20;;
9761;SDS011;4920;49.594;11.022;2023-06-22T03:09:31;13.18;;;11.80;;
9761;SDS011;4920;49.594;11.022;2023-06-22T03:12:00;12.02;;;10.82;;
9761;SDS011;4920;49.594;11.022;2023-06-22T03:14:37;13.85;;;12.45;;
9761;SDS011;4920;49.594;11.022;2023-06-22T03:17:08;15.82;;;12.02;;
9761;SDS011;4920;49.594;11.022;2023-06-22T03:19:38;14.30;;;11.93;;
9761;SDS011;4920;49.594;11.022;2023-06-22T03:22:06;13.77;;;12.38;;
9761;SDS011;4920;49.594;11.022;2023-06-22T03:24:39;14.95;;;12.65;;
9761;SDS011;4920;49.594;11.022;2023-06-22T03:27:07;15.30;;;13.73;;
9761;SDS011;4920;49.594;11.022;2023-06-22T03:29:36;15.85;;;13.77;;
9761;SDS011;4920;49.594;11.022;2023-06-22T03:32:05;16.52;;;13.35;;
9761;SDS011;4920;49.594;11.022;2023-06-22T03:34:36;14.02;;;12.45;;
9761;SDS011;4920;49.594;11.022;2023-06-22T03:37:05;14.32;;;11.85;;
9761;SDS011;4920;49.594;11.022;2023-06-22T03:39:33;14.30;;;12.82;;
9761;SDS011;4920;49.594;11.022;2023-06-22T03:42:03;14.68;;;13.18;;
9761;SDS011;4920;49.594;11.022;2023-06-22T03:44:32;14.10;;;12.70;;
9761;SDS011;4920;49.594;11.022;2023-06-22T03:47:04;14.63;;;13.13;;
9761;SDS011;4920;49.594;11.022;2023-06-22T03:49:36;14.90;;;13.40;;
9761;SDS011;4920;49.594;11.022;2023-06-22T03:52:05;15.57;;;13.18;;
9761;SDS011;4920;49.594;11.022;2023-06-22T03:54:34;14.63;;;13.00;;
9761;SDS011;4920;49.594;11.022;2023-06-22T03:57:03;14.38;;;12.73;;
9761;SDS011;4920;49.594;11.022;2023-06-22T03:59:32;13.85;;;11.95;;
9761;SDS011;4920;49.594;11.022;2023-06-22T04:02:01;13.38;;;11.98;;
9761;SDS011;4920;49.594;11.022;2023-06-22T04:04:30;13.90;;;12.45;;
9761;SDS011;4920;49.594;11.022;2023-06-22T04:07:02;14.50;;;13.00;;
9761;SDS011;4920;49.594;11.022;2023-06-22T04:09:31;14.65;;;13.15;;
9761;SDS011;4920;49.594;11.022;2023-06-22T04:12:00;17.67;;;13.35;;
9761;SDS011;4920;49.594;11.022;2023-06-22T04:14:29;17.98;;;12.55;;
9761;SDS011;4920;49.594;11.022;2023-06-22T04:16:58;14.57;;;12.90;;
9761;SDS011;4920;49.594;11.022;2023-06-22T04:19:27;16.55;;;12.77;;
9761;SDS011;4920;49.594;11.022;2023-06-22T04:21:56;13.52;;;12.00;;
9761;SDS011;4920;49.594;11.022;2023-06-22T04:24:26;13.80;;;11.40;;
9761;SDS011;4920;49.594;11.022;2023-06-22T04:26:54;13.00;;;11.43;;
9761;SDS011;4920;49.594;11.022;2023-06-22T04:29:23;11.80;;;10.60;;
9761;SDS011;4920;49.594;11.022;2023-06-22T04:31:56;12.90;;;10.20;;
9761;SDS011;4920;49.594;11.022;2023-06-22T04:34:29;12.63;;;10.02;;
9761;SDS011;4920;49.594;11.022;2023-06-22T04:36:59;11.75;;;9.65;;
9761;SDS011;4920;49.594;11.022;2023-06-22T04:39:29;12.68;;;9.00;;
9761;SDS011;4920;49.594;11.022;2023-06-22T04:41:58;11.25;;;9.70;;
9761;SDS011;4920;49.594;11.022;2023-06-22T04:44:27;12.15;;;8.73;;
9761;SDS011;4920;49.594;11.022;2023-06-22T04:46:57;9.80;;;8.80;;
9761;SDS011;4920;49.594;11.022;2023-06-22T04:49:29;10.38;;;9.27;;
9761;SDS011;4920;49.594;11.022;2023-06-22T04:52:02;11.60;;;8.88;;
9761;SDS011;4920;49.594;11.022;2023-06-22T04:54:34;11.10;;;8.98;;
9761;SDS011;4920;49.594;11.022;2023-06-22T04:57:04;10.18;;;8.80;;
9761;SDS011;4920;49.594;11.022;2023-06-22T04:59:37;11.30;;;8.90;;
9761;SDS011;4920;49.594;11.022;2023-06-22T05:02:08;9.98;;;8.45;;
9761;SDS011;4920;49.594;11.022;2023-06-22T05:04:37;9.82;;;8.82;;
9761;SDS011;4920;49.594;11.022;2023-06-22T05:07:07;11.77;;;9.25;;
9761;SDS011;4920;49.594;11.022;2023-06-22T05:09:37;10.38;;;8.55;;
9761;SDS011;4920;49.594;11.022;2023-06-22T05:12:06;10.10;;;8.68;;
9761;SDS011;4920;49.594;11.022;2023-06-22T05:14:37;9.13;;;8.23;;
9761;SDS011;4920;49.594;11.022;2023-06-22T05:17:06;10.65;;;8.63;;
9761;SDS011;4920;49.594;11.022;2023-06-22T05:19:42;10.63;;;8.73;;
9761;SDS011;4920;49.594;11.022;2023-06-22T05:22:15;9.70;;;8.68;;
9761;SDS011;4920;49.594;11.022;2023-06-22T05:24:45;11.10;;;8.65;;
9761;SDS011;4920;49.594;11.022;2023-06-22T05:27:14;10.80;;;8.35;;
9761;SDS011;4920;49.594;11.022;2023-06-22T05:29:43;13.82;;;9.57;;
9761;SDS011;4920;49.594;11.022;2023-06-22T05:32:11;9.30;;;7.95;;
9761;SDS011;4920;49.594;11.022;2023-06-22T05:34:40;11.23;;;8.50;;
9761;SDS011;4920;49.594;11.022;2023-06-22T05:37:09;9.68;;;8.68;;
9761;SDS011;4920;49.594;11.022;2023-06-22T05:39:39;13.38;;;9.10;;
9761;SDS011;4920;49.594;11.022;2023-06-22T05:42:09;12.13;;;8.35;;
9761;SDS011;4920;49.594;11.022;2023-06-22T05:44:38;10.35;;;8.48;;
9761;SDS011;4920;49.594;11.022;2023-06-22T05:47:07;11.30;;;8.45;;
9761;SDS011;4920;49.594;11.022;2023-06-22T05:49:36;9.45;;;8.25;;
9761;SDS011;4920;49.594;11.022;2023-06-22T05:52:05;11.50;;;8.65;;
9761;SDS011;4920;49.594;11.022;2023-06-22T05:54:34;10.88;;;8.60;;
9761;SDS011;4920;49.594;11.022;2023-06-22T05:57:03;9.60;;;7.72;;
9761;SDS011;4920;49.594;11.022;2023-06-22T05:59:33;9.23;;;7.43;;
9761;SDS011;4920;49.594;11.022;2023-06-22T06:02:02;11.10;;;7.97;;
9761;SDS011;4920;49.594;11.022;2023-06-22T06:04:32;10.07;;;7.88;;
9761;SDS011;4920;49.594;11.022;2023-06-22T06:07:01;8.95;;;7.47;;
9761;SDS011;4920;49.594;11.022;2023-06-22T06:09:30;11.73;;;7.88;;
9761;SDS011;4920;49.594;11.022;2023-06-22T06:11:58;8.80;;;7.90;;
9761;SDS011;4920;49.594;11.022;2023-06-22T06:14:29;9.05;;;7.82;;
9761;SDS011;4920;49.594;11.022;2023-06-22T06:16:59;8.40;;;7.32;;
9761;SDS011;4920;49.594;11.022;2023-06-22T06:19:28;11.05;;;7.80;;
9761;SDS011;4920;49.594;11.022;2023-06-22T06:21:57;8.40;;;7.40;;
9761;SDS011;4920;49.594;11.022;2023-06-22T06:24:26;8.68;;;7.78;;
9761;SDS011;4920;49.594;11.022;2023-06-22T06:26:54;8.40;;;7.50;;
9761;SDS011;4920;49.594;11.022;2023-06-22T06:29:23;10.32;;;7.70;;
9761;SDS011;4920;49.594;11.022;2023-06-22T06:31:52;9.15;;;7.65;;
9761;SDS011;4920;49.594;11.022;2023-06-22T06:34:23;8.02;;;7.07;;
9761;SDS011;4920;49.594;11.022;2023-06-22T06:36:52;7.88;;;6.97;;
9761;SDS011;4920;49.594;11.022;2023-06-22T06:39:21;10.38;;;7.82;;
9761;SDS011;4920;49.594;11.022;2023-06-22T06:41:51;9.10;;;8.02;;
9761;SDS011;4920;49.594;11.022;2023-06-22T06:44:20;9.52;;;7.90;;
9761;SDS011;4920;49.594;11.022;2023-06-22T06:46:48;8.82;;;7.40;;
9761;SDS011;4920;49.594;11.022;2023-06-22T06:49:17;8.00;;;7.20;;
9761;SDS011;4920;49.594;11.022;2023-06-22T06:51:47;10.23;;;7.78;;
9761;SDS011;4920;49.594;11.022;2023-06-22T06:54:17;7.95;;;7.20;;
9761;SDS011;4920;49.594;11.022;2023-06-22T06:56:47;10.35;;;7.85;;
9761;SDS011;4920;49.594;11.022;2023-06-22T06:59:17;9.48;;;7.20;;
9761;SDS011;4920;49.594;11.022;2023-06-22T07:01:45;9.07;;;7.30;;
9761;SDS011;4920;49.594;11.022;2023-06-22T07:04:15;10.27;;;7.70;;
9761;SDS011;4920;49.594;11.022;2023-06-22T07:06:44;9.02;;;7.65;;
9761;SDS011;4920;49.594;11.022;2023-06-22T07:09:14;9.07;;;7.20;;
9761;SDS011;4920;49.594;11.022;2023-06-22T07:11:45;8.57;;;7.57;;
9761;SDS011;4920;49.594;11.022;2023-06-22T07:14:14;11.90;;;7.60;;
9761;SDS011;4920;49.594;11.022;2023-06-22T07:16:42;11.70;;;7.50;;
9761;SDS011;4920;49.594;11.022;2023-06-22T07:19:11;10.02;;;7.28;;
9761;SDS011;4920;49.594;11.022;2023-06-22T07:21:40;10.98;;;7.20;;
9761;SDS011;4920;49.594;11.022;2023-06-22T07:24:09;8.15;;;7.32;;
9761;SDS011;4920;49.594;11.022;2023-06-22T07:26:39;8.55;;;6.90;;
9761;SDS011;4920;49.594;11.022;2023-06-22T07:29:12;11.35;;;6.90;;
9761;SDS011;4920;49.594;11.022;2023-06-22T07:31:41;7.82;;;7.03;;
9761;SDS011;4920;49.594;11.022;2023-06-22T07:34:10;11.15;;;6.80;;
9761;SDS011;4920;49.594;11.022;2023-06-22T07:36:39;9.55;;;6.40;;
9761;SDS011;4920;49.594;11.022;2023-06-22T07:39:07;10.48;;;7.05;;
9761;SDS011;4920;49.594;11.022;2023-06-22T07:41:36;10.82;;;6.65;;
9761;SDS011;4920;49.594;11.022;2023-06-22T07:44:06;10.63;;;6.57;;
9761;SDS011;4920;49.594;11.022;2023-06-22T07:46:35;7.07;;;6.40;;
9761;SDS011;4920;49.594;11.022;2023-06-22T07:49:04;9.23;;;6.43;;
9761;SDS011;4920;49.594;11.022;2023-06-22T07:51:34;7.88;;;6.30;;
9761;SDS011;4920;49.594;11.022;2023-06-22T07:54:03;11.02;;;6.90;;
9761;SDS011;4920;49.594;11.022;2023-06-22T07:56:32;9.75;;;6.45;;
9761;SDS011;4920;49.594;11.022;2023-06-22T07:59:01;8.65;;;6.57;;
9761;SDS011;4920;49.594;11.022;2023-06-22T08:01:32;12.63;;;6.28;;
9761;SDS011;4920;49.594;11.022;2023-06-22T08:04:00;7.30;;;6.50;;
9761;SDS011;4920;49.594;11.022;2023-06-22T08:06:29;8.73;;;6.43;;
9761;SDS011;4920;49.594;11.022;2023-06-22T08:08:58;10.55;;;6.10;;
9761;SDS011;4920;49.594;11.022;2023-06-22T08:11:27;6.93;;;5.85;;
9761;SDS011;4920;49.594;11.022;2023-06-22T08:13:55;7.18;;;5.72;;
9761;SDS011;4920;49.594;11.022;2023-06-22T08:16:25;8.63;;;5.80;;
9761;SDS011;4920;49.594;11.022;2023-06-22T08:18:55;7.53;;;5.78;;
9761;SDS011;4920;49.594;11.022;2023-06-22T08:21:24;9.43;;;6.07;;
9761;SDS011;4920;49.594;11.022;2023-06-22T08:23:53;10.60;;;6.30;;
9761;SDS011;4920;49.594;11.022;2023-06-22T08:26:22;7.90;;;5.85;;
9761;SDS011;4920;49.594;11.022;2023-06-22T08:28:50;7.97;;;5.35;;
9761;SDS011;4920;49.594;11.022;2023-06-22T08:31:19;10.13;;;5.72;;
9761;SDS011;4920;49.594;11.022;2023-06-22T08:33:48;8.40;;;5.97;;
9761;SDS011;4920;49.594;11.022;2023-06-22T08:36:18;7.47;;;5.35;;
9761;SDS011;4920;49.594;11.022;2023-06-22T08:38:46;7.10;;;5.47;;
9761;SDS011;4920;49.594;11.022;2023-06-22T08:41:18;7.03;;;5.75;;
9761;SDS011;4920;49.594;11.022;2023-06-22T08:43:46;8.48;;;5.55;;
9761;SDS011;4920;49.594;11.022;2023-06-22T08:46:15;8.02;;;5.70;;
9761;SDS011;4920;49.594;11.022;2023-06-22T08:48:48;10.48;;;6.05;;
9761;SDS011;4920;49.594;11.022;2023-06-22T08:51:18;6.70;;;5.63;;
9761;SDS011;4920;49.594;11.022;2023-06-22T08:53:47;8.52;;;5.68;;
9761;SDS011;4920;49.594;11.022;2023-06-22T08:56:16;8.88;;;5.90;;
9761;SDS011;4920;49.594;11.022;2023-06-22T08:58:44;8.30;;;5.38;;
9761;SDS011;4920;49.594;11.022;2023-06-22T09:01:13;6.80;;;5.78;;
9761;SDS011;4920;49.594;11.022;2023-06-22T09:03:42;8.85;;;5.80;;
9761;SDS011;4920;49.594;11.022;2023-06-22T09:06:11;8.48;;;5.95;;
9761;SDS011;4920;49.594;11.022;2023-06-22T09:08:43;9.00;;;5.20;;
9761;SDS011;4920;49.594;11.022;2023-06-22T09:11:11;8.52;;;5.78;;
9761;SDS011;4920;49.594;11.022;2023-06-22T09:13:40;8.32;;;6.15;;
9761;SDS011;4920;49.594;11.022;2023-06-22T09:16:09;7.88;;;5.53;;
9761;SDS011;4920;49.594;11.022;2023-06-22T09:18:38;9.45;;;5.93;;
9761;SDS011;4920;49.594;11.022;2023-06-22T09:21:08;10.25;;;5.80;;
9761;SDS011;4920;49.594;11.022;2023-06-22T09:23:36;7.15;;;5.50;;
9761;SDS011;4920;49.594;11.022;2023-06-22T09:26:07;8.27;;;5.45;;
9761;SDS011;4920;49.594;11.022;2023-06-22T09:28:36;11.40;;;5.78;;
9761;SDS011;4920;49.594;11.022;2023-06-22T09:31:05;7.13;;;5.60;;
9761;SDS011;4920;49.594;11.022;2023-06-22T09:33:34;12.02;;;5.72;;
9761;SDS011;4920;49.594;11.022;2023-06-22T09:36:04;11.63;;;6.05;;
9761;SDS011;4920;49.594;11.022;2023-06-22T09:38:34;10.77;;;6.07;;
9761;SDS011;4920;49.594;11.022;2023-06-22T09:41:03;7.97;;;6.00;;
9761;SDS011;4920;49.594;11.022;2023-06-22T09:43:33;8.55;;;5.97;;
9761;SDS011;4920;49.594;11.022;2023-06-22T09:46:02;10.68;;;5.75;;
9761;SDS011;4920;49.594;11.022;2023-06-22T09:48:31;11.57;;;6.40;;
9761;SDS011;4920;49.594;11.022;2023-06-22T09:51:00;8.57;;;6.00;;
9761;SDS011;4920;49.594;11.022;2023-06-22T09:53:29;7.05;;;5.85;;
9761;SDS011;4920;49.594;11.022;2023-06-22T09:55:58;7.78;;;5.80;;
9761;SDS011;4920;49.594;11.022;2023-06-22T09:58:27;7.10;;;5.57;;
9761;SDS011;4920;49.594;11.022;2023-06-22T10:00:57;10.25;;;5.75;;
9761;SDS011;4920;49.594;11.022;2023-06-22T10:03:26;8.82;;;5.43;;
9761;SDS011;4920;49.594;11.022;2023-06-22T10:05:54;9.45;;;5.30;;
9761;SDS011;4920;49.594;11.022;2023-06-22T10:08:23;12.48;;;5.85;;
9761;SDS011;4920;49.594;11.022;2023-06-22T10:10:52;8.98;;;5.55;;
9761;SDS011;4920;49.594;11.022;2023-06-22T10:13:20;8.55;;;5.40;;
9761;SDS011;4920;49.594;11.022;2023-06-22T10:15:49;10.23;;;5.90;;
9761;SDS011;4920;49.594;11.022;2023-06-22T10:18:20;11.48;;;6.07;;
9761;SDS011;4920;49.594;11.022;2023-06-22T10:20:49;9.63;;;5.93;;
9761;SDS011;4920;49.594;11.022;2023-06-22T10:23:18;10.77;;;6.18;;
9761;SDS011;4920;49.594;11.022;2023-06-22T10:25:47;11.18;;;6.15;;
9761;SDS011;4920;49.594;11.022;2023-06-22T10:28:17;10.88;;;6.18;;
9761;SDS011;4920;49.594;11.022;2023-06-22T10:30:46;8.30;;;5.72;;
9761;SDS011;4920;49.594;11.022;2023-06-22T10:33:15;13.90;;;6.00;;
9761;SDS011;4920;49.594;11.022;2023-06-22T10:35:45;7.03;;;5.43;;
9761;SDS011;4920;49.594;11.022;2023-06-22T10:38:14;8.18;;;6.05;;
9761;SDS011;4920;49.594;11.022;2023-06-22T10:40:43;11.70;;;5.72;;
9761;SDS011;4920;49.594;11.022;2023-06-22T10:43:11;12.13;;;5.88;;
9761;SDS011;4920;49.594;11.022;2023-06-22T10:45:40;10.82;;;5.55;;
9761;SDS011;4920;49.594;11.022;2023-06-22T10:48:09;7.13;;;5.57;;
9761;SDS011;4920;49.594;11.022;2023-06-22T10:50:37;9.82;;;5.72;;
9761;SDS011;4920;49.594;11.022;2023-06-22T10:53:07;9.50;;;5.88;;
9761;SDS011;4920;49.594;11.022;2023-06-22T10:55:36;10.88;;;6.07;;
9761;SDS011;4920;49.594;11.022;2023-06-22T10:58:22;9.52;;;5.40;;
9761;SDS011;4920;49.594;11.022;2023-06-22T11:00:51;7.95;;;5.75;;
9761;SDS011;4920;49.594;11.022;2023-06-22T11:03:20;11.18;;;5.63;;
9761;SDS011;4920;49.594;11.022;2023-06-22T11:05:49;9.85;;;5.63;;
9761;SDS011;4920;49.594;11.022;2023-06-22T11:08:19;9.75;;;5.57;;
9761;SDS011;4920;49.594;11.022;2023-06-22T11:10:48;10.05;;;5.32;;
9761;SDS011;4920;49.594;11.022;2023-06-22T11:13:17;11.13;;;5.47;;
9761;SDS011;4920;49.594;11.022;2023-06-22T11:15:45;11.15;;;6.00;;
9761;SDS011;4920;49.594;11.022;2023-06-22T11:18:14;10.95;;;5.90;;
9761;SDS011;4920;49.594;11.022;2023-06-22T11:20:42;11.30;;;6.30;;
9761;SDS011;4920;49.594;11.022;2023-06-22T11:23:11;10.00;;;6.15;;
9761;SDS011;4920;49.594;11.022;2023-06-22T11:25:41;11.30;;;6.72;;
9761;SDS011;4920;49.594;11.022;2023-06-22T11:28:10;11.32;;;5.70;;
9761;SDS011;4920;49.594;11.022;2023-06-22T11:30:38;11.80;;;5.28;;
9761;SDS011;4920;49.594;11.022;2023-06-22T11:33:07;12.15;;;5.80;;
9761;SDS011;4920;49.594;11.022;2023-06-22T11:35:36;9.07;;;5.68;;
9761;SDS011;4920;49.594;11.022;2023-06-22T11:38:04;10.85;;;5.80;;
9761;SDS011;4920;49.594;11.022;2023-06-22T11:40:34;7.43;;;5.35;;
9761;SDS011;4920;49.594;11.022;2023-06-22T11:43:04;9.93;;;5.70;;
9761;SDS011;4920;49.594;11.022;2023-06-22T11:45:33;9.38;;;5.55;;
9761;SDS011;4920;49.594;11.022;2023-06-22T11:48:02;13.63;;;5.97;;
9761;SDS011;4920;49.594;11.022;2023-06-22T11:50:31;10.93;;;6.03;;
9761;SDS011;4920;49.594;11.022;2023-06-22T11:53:02;14.43;;;5.80;;
9761;SDS011;4920;49.594;11.022;2023-06-22T11:55:31;10.82;;;5.18;;
9761;SDS011;4920;49.594;11.022;2023-06-22T11:57:59;13.13;;;5.75;;
9761;SDS011;4920;49.594;11.022;2023-06-22T12:00:31;11.02;;;5.80;;
9761;SDS011;4920;49.594;11.022;2023-06-22T12:03:16;10.20;;;5.45;;
9761;SDS011;4920;49.594;11.022;2023-06-22T12:05:45;7.93;;;5.50;;
9761;SDS011;4920;49.594;11.022;2023-06-22T12:08:13;12.68;;;5.70;;
9761;SDS011;4920;49.594;11.022;2023-06-22T12:10:42;9.13;;;5.68;;
9761;SDS011;4920;49.594;11.022;2023-06-22T12:13:10;15.00;;;5.93;;
9761;SDS011;4920;49.594;11.022;2023-06-22T12:15:41;9.65;;;5.47;;
9761;SDS011;4920;49.594;11.022;2023-06-22T12:18:10;9.93;;;5.93;;
9761;SDS011;4920;49.594;11.022;2023-06-22T12:20:41;10.35;;;5.78;;
9761;SDS011;4920;49.594;11.022;2023-06-22T12:23:09;12.65;;;5.45;;
9761;SDS011;4920;49.594;11.022;2023-06-22T12:25:38;11.68;;;5.60;;
9761;SDS011;4920;49.594;11.022;2023-06-22T12:28:07;11.27;;;5.50;;
9761;SDS011;4920;49.594;11.022;2023-06-22T12:30:35;9.93;;;5.45;;
9761;SDS011;4920;49.594;11.022;2023-06-22T12:33:05;9.57;;;5.68;;
9761;SDS011;4920;49.594;11.022;2023-06-22T12:35:34;13.52;;;5.70;;
9761;SDS011;4920;49.594;11.022;2023-06-22T12:38:03;9.52;;;5.40;;
9761;SDS011;4920;49.594;11.022;2023-06-22T12:40:33;10.43;;;5.50;;
9761;SDS011;4920;49.594;11.022;2023-06-22T12:43:01;11.05;;;5.53;;
9761;SDS011;4920;49.594;11.022;2023-06-22T12:45:30;13.52;;;5.68;;
9761;SDS011;4920;49.594;11.022;2023-06-22T12:48:00;12.52;;;5.78;;
9761;SDS011;4920;49.594;11.022;2023-06-22T12:50:30;13.23;;;5.65;;
9761;SDS011;4920;49.594;11.022;2023-06-22T12:52:59;13.63;;;5.72;;
9761;SDS011;4920;49.594;11.022;2023-06-22T12:55:29;11.00;;;5.63;;
9761;SDS011;4920;49.594;11.022;2023-06-22T12:57:58;9.00;;;5.32;;
9761;SDS011;4920;49.594;11.022;2023-06-22T13:00:27;13.05;;;5.70;;
9761;SDS011;4920;49.594;11.022;2023-06-22T13:02:56;12.30;;;5.95;;
9761;SDS011;4920;49.594;11.022;2023-06-22T13:05:25;12.02;;;5.93;;
9761;SDS011;4920;49.594;11.022;2023-06-22T13:07:55;10.85;;;5.85;;
9761;SDS011;4920;49.594;11.022;2023-06-22T13:10:23;9.57;;;5.47;;
9761;SDS011;4920;49.594;11.022;2023-06-22T13:12:52;13.98;;;5.85;;
9761;SDS011;4920;49.594;11.022;2023-06-22T13:15:27;12.02;;;5.68;;
9761;SDS011;4920;49.594;11.022;2023-06-22T13:17:56;13.35;;;6.13;;
9761;SDS011;4920;49.594;11.022;2023-06-22T13:20:25;12.60;;;5.20;;
9761;SDS011;4920;49.594;11.022;2023-06-22T13:22:56;13.90;;;5.70;;
9761;SDS011;4920;49.594;11.022;2023-06-22T13:25:24;13.93;;;5.57;;
9761;SDS011;4920;49.594;11.022;2023-06-22T13:27:54;12.30;;;5.70;;
9761;SDS011;4920;49.594;11.022;2023-06-22T13:30:23;11.30;;;5.85;;
9761;SDS011;4920;49.594;11.022;2023-06-22T13:32:51;13.23;;;5.60;;
9761;SDS011;4920;49.594;11.022;2023-06-22T13:35:20;11.45;;;5.25;;
9761;SDS011;4920;49.594;11.022;2023-06-22T13:37:49;14.63;;;5.70;;
9761;SDS011;4920;49.594;11.022;2023-06-22T13:40:19;13.05;;;5.43;;
9761;SDS011;4920;49.594;11.022;2023-06-22T13:42:48;10.82;;;5.88;;
9761;SDS011;4920;49.594;11.022;2023-06-22T13:45:19;14.95;;;5.65;;
9761;SDS011;4920;49.594;11.022;2023-06-22T13:47:48;10.90;;;5.63;;
9761;SDS011;4920;49.594;11.022;2023-06-22T13:50:17;13.43;;;5.82;;
9761;SDS011;4920;49.594;11.022;2023-06-22T13:52:45;14.68;;;5.78;;
9761;SDS011;4920;49.594;11.022;2023-06-22T13:55:14;11.68;;;5.68;;
9761;SDS011;4920;49.594;11.022;2023-06-22T13:57:44;11.52;;;6.10;;
9761;SDS011;4920;49.594;11.022;2023-06-22T14:00:13;10.13;;;5.82;;
9761;SDS011;4920;49.594;11.022;2023-06-22T14:02:42;14.35;;;5.95;;
9761;SDS011;4920;49.594;11.022;2023-06-22T14:05:10;13.23;;;5.85;;
9761;SDS011;4920;49.594;11.022;2023-06-22T14:07:40;15.65;;;5.70;;
9761;SDS011;4920;49.594;11.022;2023-06-22T14:10:09;13.95;;;5.80;;
9761;SDS011;4920;49.594;11.022;2023-06-22T14:12:37;15.52;;;5.68;;
9761;SDS011;4920;49.594;11.022;2023-06-22T14:15:08;11.02;;;5.72;;
9761;SDS011;4920;49.594;11.022;2023-06-22T14:17:37;12.95;;;5.97;;
9761;SDS011;4920;49.594;11.022;2023-06-22T14:20:06;11.90;;;5.68;;
9761;SDS011;4920;49.594;11.022;2023-06-22T14:22:35;12.77;;;5.25;;
9761;SDS011;4920;49.594;11.022;2023-06-22T14:25:04;12.75;;;5.90;;
9761;SDS011;4920;49.594;11.022;2023-06-22T14:27:34;12.57;;;5.82;;
9761;SDS011;4920;49.594;11.022;2023-06-22T14:30:03;12.23;;;5.78;;
9761;SDS011;4920;49.594;11.022;2023-06-22T14:32:34;14.88;;;5.90;;
9761;SDS011;4920;49.594;11.022;2023-06-22T14:35:03;14.05;;;6.03;;
9761;SDS011;4920;49.594;11.022;2023-06-22T14:37:32;14.63;;;6.30;;
9761;SDS011;4920;49.594;11.022;2023-06-22T14:40:00;10.63;;;5.70;;
9761;SDS011;4920;49.594;11.022;2023-06-22T14:42:29;17.08;;;5.75;;
9761;SDS011;4920;49.594;11.022;2023-06-22T14:44:57;12.98;;;5.90;;
9761;SDS011;4920;49.594;11.022;2023-06-22T14:47:26;15.35;;;5.80;;
9761;SDS011;4920;49.594;11.022;2023-06-22T14:49:56;13.63;;;6.00;;
9761;SDS011;4920;49.594;11.022;2023-06-22T14:52:27;14.95;;;6.10;;
9761;SDS011;4920;49.594;11.022;2023-06-22T14:54:55;16.55;;;5.65;;
9761;SDS011;4920;49.594;11.022;2023-06-22T14:57:24;17.52;;;6.32;;
9761;SDS011;4920;49.594;11.022;2023-06-22T14:59:52;10.00;;;5.70;;
9761;SDS011;4920;49.594;11.022;2023-06-22T15:02:22;14.73;;;5.80;;